sensor_id;sensor_type;location;lat;lon;timestamp;pressure;altitude;pressure_sealevel;temperature;humidity
43161;BME280;40968;52.342;5.528;2023-03-16T00:01:25;101797.06;;;5.06;56.42
43161;BME280;40968;52.342;5.528;2023-03-16T00:03:52;101808.59;;;5.05;56.54
43161;BME280;40968;52.342;5.528;2023-03-16T00:06:18;101795.31;;;5.05;56.56
43161;BME280;40968;52.342;5.528;2023-03-16T00:08:45;101799.72;;;5.06;57.35
43161;BME280;40968;52.342;5.528;2023-03-16T00:11:12;101716.38;;;4.58;57.62
43161;BME280;40968;52.342;5.528;2023-03-16T00:13:38;101744.78;;;4.81;56.76
43161;BME280;40968;52.342;5.528;2023-03-16T00:16:08;101785.47;;;5.07;57.14
43161;BME280;40968;52.342;5.528;2023-03-16T00:18:41;101748.94;;;4.88;57.87
43161;BME280;40968;52.342;5.528;2023-03-16T00:21:08;101765.16;;;5.06;57.87
43161;BME280;40968;52.342;5.528;2023-03-16T00:23:35;101765.38;;;5.00;57.32
43161;BME280;40968;52.342;5.528;2023-03-16T00:26:04;101754.75;;;5.00;58.11
43161;BME280;40968;52.342;5.528;2023-03-16T00:28:31;101402.03;;;2.93;57.95
43161;BME280;40968;52.342;5.528;2023-03-16T00:30:59;101638.38;;;4.37;58.79
43161;BME280;40968;52.342;5.528;2023-03-16T00:33:27;101491.31;;;3.43;57.81
43161;BME280;40968;52.342;5.528;2023-03-16T00:35:54;101742.50;;;4.95;58.91
43161;BME280;40968;52.342;5.528;2023-03-16T00:38:28;101689.63;;;4.64;58.01
43161;BME280;40968;52.342;5.528;2023-03-16T00:40:55;101742.59;;;4.92;59.00
43161;BME280;40968;52.342;5.528;2023-03-16T00:43:22;101642.78;;;4.36;58.46
43161;BME280;40968;52.342;5.528;2023-03-16T00:45:56;101613.47;;;4.15;58.41
43161;BME280;40968;52.342;5.528;2023-03-16T00:48:23;101738.22;;;4.91;58.94
43161;BME280;40968;52.342;5.528;2023-03-16T00:50:51;101672.56;;;4.46;58.80
43161;BME280;40968;52.342;5.528;2023-03-16T00:53:18;101716.81;;;4.71;58.73
43161;BME280;40968;52.342;5.528;2023-03-16T00:55:46;101730.56;;;4.82;59.16
43161;BME280;40968;52.342;5.528;2023-03-16T00:58:13;101583.44;;;3.88;59.38
43161;BME280;40968;52.342;5.528;2023-03-16T01:00:39;101732.31;;;4.83;59.21
43161;BME280;40968;52.342;5.528;2023-03-16T01:03:07;101657.59;;;4.43;59.53
43161;BME280;40968;52.342;5.528;2023-03-16T01:05:38;101726.91;;;4.86;60.36
43161;BME280;40968;52.342;5.528;2023-03-16T01:08:06;101710.97;;;4.86;59.85
43161;BME280;40968;52.342;5.528;2023-03-16T01:10:33;101678.03;;;4.67;60.33
43161;BME280;40968;52.342;5.528;2023-03-16T01:13:00;101677.31;;;4.61;60.13
43161;BME280;40968;52.342;5.528;2023-03-16T01:15:27;101706.63;;;4.84;60.62
43161;BME280;40968;52.342;5.528;2023-03-16T01:17:54;101705.69;;;4.85;60.54
43161;BME280;40968;52.342;5.528;2023-03-16T01:20:21;101605.81;;;4.31;61.26
43161;BME280;40968;52.342;5.528;2023-03-16T01:22:48;101571.16;;;4.11;60.66
43161;BME280;40968;52.342;5.528;2023-03-16T01:25:17;101565.00;;;4.10;61.04
43161;BME280;40968;52.342;5.528;2023-03-16T01:27:44;101689.59;;;4.89;61.16
43161;BME280;40968;52.342;5.528;2023-03-16T01:30:12;101586.66;;;4.23;61.88
43161;BME280;40968;52.342;5.528;2023-03-16T01:32:39;101683.44;;;4.87;61.33
43161;BME280;40968;52.342;5.528;2023-03-16T01:35:07;101623.63;;;4.53;61.63
43161;BME280;40968;52.342;5.528;2023-03-16T01:37:33;101636.66;;;4.59;61.83
43161;BME280;40968;52.342;5.528;2023-03-16T01:40:00;101523.88;;;3.98;61.91
43161;BME280;40968;52.342;5.528;2023-03-16T01:42:29;101661.50;;;4.82;62.00
43161;BME280;40968;52.342;5.528;2023-03-16T01:44:58;101586.00;;;4.42;62.80
43161;BME280;40968;52.342;5.528;2023-03-16T01:47:29;101608.72;;;4.49;61.62
43161;BME280;40968;52.342;5.528;2023-03-16T01:50:03;101656.31;;;4.79;62.41
43161;BME280;40968;52.342;5.528;2023-03-16T01:52:32;101663.44;;;4.78;62.15
43161;BME280;40968;52.342;5.528;2023-03-16T01:55:03;101529.63;;;4.10;62.40
43161;BME280;40968;52.342;5.528;2023-03-16T01:57:37;101563.50;;;4.27;62.81
43161;BME280;40968;52.342;5.528;2023-03-16T02:00:09;101641.72;;;4.67;62.36
43161;BME280;40968;52.342;5.528;2023-03-16T02:02:41;101658.06;;;4.80;62.51
43161;BME280;40968;52.342;5.528;2023-03-16T02:05:12;101606.06;;;4.49;63.23
43161;BME280;40968;52.342;5.528;2023-03-16T02:07:42;101533.09;;;4.12;63.20
43161;BME280;40968;52.342;5.528;2023-03-16T02:10:12;101636.97;;;4.75;63.33
43161;BME280;40968;52.342;5.528;2023-03-16T02:12:41;101610.94;;;4.61;63.74
43161;BME280;40968;52.342;5.528;2023-03-16T02:15:09;101256.94;;;2.52;63.16
43161;BME280;40968;52.342;5.528;2023-03-16T02:17:38;101569.25;;;4.40;63.42
43161;BME280;40968;52.342;5.528;2023-03-16T02:20:17;101626.19;;;4.80;63.73
43161;BME280;40968;52.342;5.528;2023-03-16T02:22:48;101624.44;;;4.79;63.87
43161;BME280;40968;52.342;5.528;2023-03-16T02:25:24;101627.09;;;4.79;63.79
43161;BME280;40968;52.342;5.528;2023-03-16T02:27:57;101508.38;;;4.11;64.17
43161;BME280;40968;52.342;5.528;2023-03-16T02:30:30;101458.91;;;3.85;63.78
43161;BME280;40968;52.342;5.528;2023-03-16T02:32:57;101618.22;;;4.80;64.28
43161;BME280;40968;52.342;5.528;2023-03-16T02:35:23;101565.19;;;4.53;64.17
43161;BME280;40968;52.342;5.528;2023-03-16T02:37:50;101349.72;;;3.25;64.24
43161;BME280;40968;52.342;5.528;2023-03-16T02:40:22;101554.00;;;4.45;64.21
43161;BME280;40968;52.342;5.528;2023-03-16T02:42:53;101615.56;;;4.80;64.27
43161;BME280;40968;52.342;5.528;2023-03-16T02:45:20;101622.63;;;4.81;64.26
43161;BME280;40968;52.342;5.528;2023-03-16T02:47:51;101345.41;;;3.22;64.38
43161;BME280;40968;52.342;5.528;2023-03-16T02:50:19;101573.00;;;4.58;64.36
43161;BME280;40968;52.342;5.528;2023-03-16T02:52:46;101611.03;;;4.82;64.44
43161;BME280;40968;52.342;5.528;2023-03-16T02:55:12;101428.47;;;3.72;64.63
43161;BME280;40968;52.342;5.528;2023-03-16T02:57:39;101523.78;;;4.25;64.71
43161;BME280;40968;52.342;5.528;2023-03-16T03:00:07;101423.41;;;3.65;64.84
43161;BME280;40968;52.342;5.528;2023-03-16T03:02:38;101564.97;;;4.59;65.41
43161;BME280;40968;52.342;5.528;2023-03-16T03:05:07;101595.47;;;4.73;65.30
43161;BME280;40968;52.342;5.528;2023-03-16T03:07:34;101530.53;;;4.34;65.94
43161;BME280;40968;52.342;5.528;2023-03-16T03:10:01;101540.13;;;4.38;66.20
43161;BME280;40968;52.342;5.528;2023-03-16T03:12:30;101506.25;;;4.21;66.46
43161;BME280;40968;52.342;5.528;2023-03-16T03:14:57;101495.84;;;4.15;66.53
43161;BME280;40968;52.342;5.528;2023-03-16T03:17:23;101350.69;;;3.22;66.50
43161;BME280;40968;52.342;5.528;2023-03-16T03:19:54;101598.09;;;4.73;67.30
43161;BME280;40968;52.342;5.528;2023-03-16T03:22:22;101613.19;;;4.72;67.10
43161;BME280;40968;52.342;5.528;2023-03-16T03:24:50;101600.91;;;4.70;67.46
43161;BME280;40968;52.342;5.528;2023-03-16T03:27:17;101594.88;;;4.64;67.39
43161;BME280;40968;52.342;5.528;2023-03-16T03:29:44;101576.22;;;4.66;68.02
43161;BME280;40968;52.342;5.528;2023-03-16T03:32:11;101594.03;;;4.64;67.64
43161;BME280;40968;52.342;5.528;2023-03-16T03:34:38;101399.97;;;3.53;68.41
43161;BME280;40968;52.342;5.528;2023-03-16T03:37:06;101581.81;;;4.58;68.31
43161;BME280;40968;52.342;5.528;2023-03-16T03:39:34;101362.94;;;3.26;68.46
43161;BME280;40968;52.342;5.528;2023-03-16T03:42:01;101580.91;;;4.59;68.38
43161;BME280;40968;52.342;5.528;2023-03-16T03:44:28;101577.34;;;4.60;68.89
43161;BME280;40968;52.342;5.528;2023-03-16T03:46:57;101515.13;;;4.20;68.63
43161;BME280;40968;52.342;5.528;2023-03-16T03:49:23;101555.75;;;4.46;68.96
43161;BME280;40968;52.342;5.528;2023-03-16T03:51:50;101387.75;;;3.49;69.18
43161;BME280;40968;52.342;5.528;2023-03-16T03:54:16;101518.47;;;4.25;68.97
43161;BME280;40968;52.342;5.528;2023-03-16T03:56:44;101564.34;;;4.53;69.54
43161;BME280;40968;52.342;5.528;2023-03-16T03:59:11;101556.50;;;4.50;69.81
43161;BME280;40968;52.342;5.528;2023-03-16T04:01:38;101560.16;;;4.47;69.70
43161;BME280;40968;52.342;5.528;2023-03-16T04:04:04;101560.25;;;4.44;69.95
43161;BME280;40968;52.342;5.528;2023-03-16T04:06:31;101541.09;;;4.36;70.58
43161;BME280;40968;52.342;5.528;2023-03-16T04:08:58;101437.09;;;3.77;70.03
43161;BME280;40968;52.342;5.528;2023-03-16T04:11:24;101540.03;;;4.40;70.74
43161;BME280;40968;52.342;5.528;2023-03-16T04:13:52;101536.53;;;4.39;70.49
43161;BME280;40968;52.342;5.528;2023-03-16T04:16:19;101484.66;;;4.07;70.20
43161;BME280;40968;52.342;5.528;2023-03-16T04:18:46;101419.88;;;3.65;70.17
43161;BME280;40968;52.342;5.528;2023-03-16T04:21:14;101538.56;;;4.32;70.39
43161;BME280;40968;52.342;5.528;2023-03-16T04:23:41;101441.78;;;3.70;70.76
43161;BME280;40968;52.342;5.528;2023-03-16T04:26:09;101439.06;;;3.72;70.63
43161;BME280;40968;52.342;5.528;2023-03-16T04:28:35;101402.50;;;3.56;70.61
43161;BME280;40968;52.342;5.528;2023-03-16T04:31:04;101470.00;;;3.96;70.92
43161;BME280;40968;52.342;5.528;2023-03-16T04:33:32;101533.19;;;4.34;70.93
43161;BME280;40968;52.342;5.528;2023-03-16T04:35:59;101359.34;;;3.27;70.44
43161;BME280;40968;52.342;5.528;2023-03-16T04:38:27;101528.84;;;4.31;71.01
43161;BME280;40968;52.342;5.528;2023-03-16T04:40:53;101539.47;;;4.31;70.67
43161;BME280;40968;52.342;5.528;2023-03-16T04:43:20;101489.84;;;4.10;70.59
43161;BME280;40968;52.342;5.528;2023-03-16T04:45:47;101420.56;;;3.70;70.67
43161;BME280;40968;52.342;5.528;2023-03-16T04:48:16;101528.00;;;4.31;70.47
43161;BME280;40968;52.342;5.528;2023-03-16T04:50:44;101499.19;;;4.20;71.51
43161;BME280;40968;52.342;5.528;2023-03-16T04:53:11;101522.63;;;4.32;70.69
43161;BME280;40968;52.342;5.528;2023-03-16T04:55:37;101259.81;;;2.71;70.77
43161;BME280;40968;52.342;5.528;2023-03-16T04:58:04;101524.66;;;4.26;70.46
43161;BME280;40968;52.342;5.528;2023-03-16T05:00:31;101431.94;;;3.74;71.05
43161;BME280;40968;52.342;5.528;2023-03-16T05:02:57;101280.56;;;2.84;70.94
43161;BME280;40968;52.342;5.528;2023-03-16T05:05:25;101067.91;;;1.58;70.63
43161;BME280;40968;52.342;5.528;2023-03-16T05:07:52;101366.81;;;3.41;71.05
43161;BME280;40968;52.342;5.528;2023-03-16T05:10:18;101497.56;;;4.16;71.20
43161;BME280;40968;52.342;5.528;2023-03-16T05:12:46;101530.59;;;4.32;71.29
43161;BME280;40968;52.342;5.528;2023-03-16T05:15:13;101508.81;;;4.23;71.42
43161;BME280;40968;52.342;5.528;2023-03-16T05:17:40;101520.78;;;4.35;71.43
43161;BME280;40968;52.342;5.528;2023-03-16T05:20:08;101433.53;;;3.78;71.04
43161;BME280;40968;52.342;5.528;2023-03-16T05:22:39;101438.38;;;3.90;71.26
43161;BME280;40968;52.342;5.528;2023-03-16T05:25:07;101442.41;;;3.77;71.20
43161;BME280;40968;52.342;5.528;2023-03-16T05:27:33;101510.34;;;4.30;71.75
43161;BME280;40968;52.342;5.528;2023-03-16T05:30:00;101509.47;;;4.29;71.34
43161;BME280;40968;52.342;5.528;2023-03-16T05:32:27;101397.19;;;3.56;71.64
43161;BME280;40968;52.342;5.528;2023-03-16T05:34:53;101506.72;;;4.32;71.65
43161;BME280;40968;52.342;5.528;2023-03-16T05:37:20;101410.59;;;3.77;71.55
43161;BME280;40968;52.342;5.528;2023-03-16T05:39:49;101505.72;;;4.35;71.32
43161;BME280;40968;52.342;5.528;2023-03-16T05:42:16;101492.47;;;4.35;71.45
43161;BME280;40968;52.342;5.528;2023-03-16T05:44:44;101487.19;;;4.34;71.30
43161;BME280;40968;52.342;5.528;2023-03-16T05:47:11;101484.44;;;4.37;71.81
43161;BME280;40968;52.342;5.528;2023-03-16T05:49:37;101483.63;;;4.35;71.40
43161;BME280;40968;52.342;5.528;2023-03-16T05:52:04;101473.00;;;4.35;71.60
43161;BME280;40968;52.342;5.528;2023-03-16T05:54:31;101479.13;;;4.37;71.90
43161;BME280;40968;52.342;5.528;2023-03-16T05:56:59;101479.13;;;4.37;71.75
43161;BME280;40968;52.342;5.528;2023-03-16T05:59:25;101489.69;;;4.38;71.97
43161;BME280;40968;52.342;5.528;2023-03-16T06:01:52;101213.78;;;2.75;71.82
43161;BME280;40968;52.342;5.528;2023-03-16T06:04:18;101479.00;;;4.40;72.06
43161;BME280;40968;52.342;5.528;2023-03-16T06:06:46;101487.78;;;4.42;72.10
43161;BME280;40968;52.342;5.528;2023-03-16T06:09:12;101412.41;;;4.00;72.15
43161;BME280;40968;52.342;5.528;2023-03-16T06:11:39;101487.88;;;4.39;72.50
43161;BME280;40968;52.342;5.528;2023-03-16T06:14:07;101487.84;;;4.40;72.60
43161;BME280;40968;52.342;5.528;2023-03-16T06:16:33;101486.06;;;4.41;72.89
43161;BME280;40968;52.342;5.528;2023-03-16T06:19:00;101409.69;;;4.02;72.62
43161;BME280;40968;52.342;5.528;2023-03-16T06:21:27;101348.34;;;3.63;72.45
43161;BME280;40968;52.342;5.528;2023-03-16T06:23:53;101339.63;;;3.60;72.66
43161;BME280;40968;52.342;5.528;2023-03-16T06:26:20;101478.09;;;4.41;72.60
43161;BME280;40968;52.342;5.528;2023-03-16T06:28:47;101344.84;;;3.63;72.58
43161;BME280;40968;52.342;5.528;2023-03-16T06:31:15;101476.25;;;4.43;73.10
43161;BME280;40968;52.342;5.528;2023-03-16T06:33:42;101466.41;;;4.45;72.84
43161;BME280;40968;52.342;5.528;2023-03-16T06:36:08;101459.38;;;4.44;72.90
43161;BME280;40968;52.342;5.528;2023-03-16T06:38:36;101454.19;;;4.41;72.64
43161;BME280;40968;52.342;5.528;2023-03-16T06:41:02;101348.81;;;3.75;72.63
43161;BME280;40968;52.342;5.528;2023-03-16T06:43:29;101457.91;;;4.37;73.03
43161;BME280;40968;52.342;5.528;2023-03-16T06:45:56;101334.88;;;3.70;72.70
43161;BME280;40968;52.342;5.528;2023-03-16T06:48:24;101393.66;;;4.05;72.78
43161;BME280;40968;52.342;5.528;2023-03-16T06:50:51;101412.56;;;4.19;72.75
43161;BME280;40968;52.342;5.528;2023-03-16T06:53:17;101426.50;;;4.24;72.47
43161;BME280;40968;52.342;5.528;2023-03-16T06:55:44;101341.31;;;3.86;72.70
43161;BME280;40968;52.342;5.528;2023-03-16T06:58:10;101374.97;;;4.08;73.00
43161;BME280;40968;52.342;5.528;2023-03-16T07:00:37;101425.06;;;4.39;72.85
43161;BME280;40968;52.342;5.528;2023-03-16T07:03:04;101455.22;;;4.60;72.91
43161;BME280;40968;52.342;5.528;2023-03-16T07:05:32;101441.00;;;4.61;73.19
43161;BME280;40968;52.342;5.528;2023-03-16T07:07:58;101392.81;;;4.26;73.40
43161;BME280;40968;52.342;5.528;2023-03-16T07:10:25;101189.47;;;3.13;72.79
43161;BME280;40968;52.342;5.528;2023-03-16T07:12:52;101454.78;;;4.71;72.94
43161;BME280;40968;52.342;5.528;2023-03-16T07:15:19;101448.47;;;4.74;73.37
43161;BME280;40968;52.342;5.528;2023-03-16T07:17:46;101329.97;;;4.05;73.20
43161;BME280;40968;52.342;5.528;2023-03-16T07:20:13;101310.50;;;4.06;73.23
43161;BME280;40968;52.342;5.528;2023-03-16T07:22:40;101209.56;;;3.42;73.50
43161;BME280;40968;52.342;5.528;2023-03-16T07:25:08;101446.38;;;4.82;73.37
43161;BME280;40968;52.342;5.528;2023-03-16T07:27:35;101423.66;;;4.75;73.66
43161;BME280;40968;52.342;5.528;2023-03-16T07:30:03;101331.13;;;4.21;73.88
43161;BME280;40968;52.342;5.528;2023-03-16T07:32:30;101441.63;;;4.90;74.04
43161;BME280;40968;52.342;5.528;2023-03-16T07:34:57;101369.72;;;4.52;73.29
43161;BME280;40968;52.342;5.528;2023-03-16T07:37:24;101379.38;;;4.53;73.51
43161;BME280;40968;52.342;5.528;2023-03-16T07:39:52;101370.13;;;4.41;73.37
43161;BME280;40968;52.342;5.528;2023-03-16T07:42:19;101426.84;;;4.83;73.26
43161;BME280;40968;52.342;5.528;2023-03-16T07:44:46;101254.84;;;3.82;73.19
43161;BME280;40968;52.342;5.528;2023-03-16T07:47:13;101462.19;;;4.85;73.37
43161;BME280;40968;52.342;5.528;2023-03-16T07:49:40;101345.50;;;4.38;73.66
43161;BME280;40968;52.342;5.528;2023-03-16T07:52:07;101469.56;;;5.01;73.45
43161;BME280;40968;52.342;5.528;2023-03-16T07:54:33;101371.84;;;4.64;73.74
43161;BME280;40968;52.342;5.528;2023-03-16T07:57:01;101437.53;;;5.04;73.85
43161;BME280;40968;52.342;5.528;2023-03-16T07:59:28;101268.19;;;4.03;73.43
43161;BME280;40968;52.342;5.528;2023-03-16T08:01:55;101348.72;;;4.46;74.07
43161;BME280;40968;52.342;5.528;2023-03-16T08:04:22;101399.63;;;4.78;74.31
43161;BME280;40968;52.342;5.528;2023-03-16T08:06:49;101373.59;;;4.65;73.99
43161;BME280;40968;52.342;5.528;2023-03-16T08:09:16;101429.56;;;5.04;74.42
43161;BME280;40968;52.342;5.528;2023-03-16T08:11:43;101429.56;;;5.04;74.43
43161;BME280;40968;52.342;5.528;2023-03-16T08:14:11;101437.41;;;5.07;74.12
43161;BME280;40968;52.342;5.528;2023-03-16T08:16:38;101431.16;;;5.08;74.25
43161;BME280;40968;52.342;5.528;2023-03-16T08:19:04;101433.72;;;5.11;74.78
43161;BME280;40968;52.342;5.528;2023-03-16T08:21:31;101376.41;;;4.83;74.50
43161;BME280;40968;52.342;5.528;2023-03-16T08:23:58;101396.34;;;4.93;74.61
43161;BME280;40968;52.342;5.528;2023-03-16T08:26:26;101424.53;;;5.18;75.09
43161;BME280;40968;52.342;5.528;2023-03-16T08:28:52;101423.13;;;5.09;74.65
43161;BME280;40968;52.342;5.528;2023-03-16T08:31:20;101303.19;;;4.55;74.62
43161;BME280;40968;52.342;5.528;2023-03-16T08:33:48;101422.16;;;5.32;74.86
43161;BME280;40968;52.342;5.528;2023-03-16T08:36:15;101143.00;;;3.72;74.03
43161;BME280;40968;52.342;5.528;2023-03-16T08:38:42;101345.34;;;5.06;74.46
43161;BME280;40968;52.342;5.528;2023-03-16T08:41:11;101363.34;;;5.20;73.83
43161;BME280;40968;52.342;5.528;2023-03-16T08:43:41;101407.28;;;5.49;73.71
43161;BME280;40968;52.342;5.528;2023-03-16T08:46:08;101395.16;;;5.42;73.36
43161;BME280;40968;52.342;5.528;2023-03-16T08:48:37;101343.97;;;5.18;73.71
43161;BME280;40968;52.342;5.528;2023-03-16T08:51:05;101406.06;;;5.56;73.56
43161;BME280;40968;52.342;5.528;2023-03-16T08:53:31;101405.13;;;5.57;73.41
43161;BME280;40968;52.342;5.528;2023-03-16T08:56:01;101406.97;;;5.55;73.04
43161;BME280;40968;52.342;5.528;2023-03-16T08:58:29;101416.44;;;5.62;72.65
43161;BME280;40968;52.342;5.528;2023-03-16T09:00:57;101343.47;;;5.28;72.50
43161;BME280;40968;52.342;5.528;2023-03-16T09:03:24;101237.94;;;4.70;72.26
43161;BME280;40968;52.342;5.528;2023-03-16T09:05:53;101243.81;;;4.78;71.68
43161;BME280;40968;52.342;5.528;2023-03-16T09:08:22;101390.81;;;5.80;71.68
43161;BME280;40968;52.342;5.528;2023-03-16T09:10:48;101346.25;;;5.46;70.94
43161;BME280;40968;52.342;5.528;2023-03-16T09:13:15;101351.03;;;5.58;71.26
43161;BME280;40968;52.342;5.528;2023-03-16T09:15:43;101162.66;;;4.31;70.79
43161;BME280;40968;52.342;5.528;2023-03-16T09:18:10;101409.47;;;6.00;70.96
43161;BME280;40968;52.342;5.528;2023-03-16T09:20:37;101410.19;;;6.03;70.99
43161;BME280;40968;52.342;5.528;2023-03-16T09:23:05;101404.81;;;6.05;70.33
43161;BME280;40968;52.342;5.528;2023-03-16T09:25:32;101156.28;;;4.56;69.55
43161;BME280;40968;52.342;5.528;2023-03-16T09:27:58;101242.91;;;5.19;70.16
43161;BME280;40968;52.342;5.528;2023-03-16T09:30:25;101403.25;;;6.20;70.35
43161;BME280;40968;52.342;5.528;2023-03-16T09:32:52;101348.50;;;5.93;70.07
43161;BME280;40968;52.342;5.528;2023-03-16T09:35:19;101365.38;;;6.13;70.06
43161;BME280;40968;52.342;5.528;2023-03-16T09:37:45;101171.34;;;4.95;69.95
43161;BME280;40968;52.342;5.528;2023-03-16T09:40:21;101394.75;;;6.30;69.24
43161;BME280;40968;52.342;5.528;2023-03-16T09:42:55;101320.66;;;5.83;70.11
43161;BME280;40968;52.342;5.528;2023-03-16T09:45:31;101334.38;;;5.93;69.14
43161;BME280;40968;52.342;5.528;2023-03-16T09:48:03;101395.47;;;6.34;69.44
43161;BME280;40968;52.342;5.528;2023-03-16T09:50:32;101329.78;;;5.96;69.65
43161;BME280;40968;52.342;5.528;2023-03-16T09:53:04;101398.06;;;6.36;68.54
43161;BME280;40968;52.342;5.528;2023-03-16T09:55:38;101392.56;;;6.39;68.98
43161;BME280;40968;52.342;5.528;2023-03-16T09:58:11;101332.19;;;6.03;68.85
43161;BME280;40968;52.342;5.528;2023-03-16T10:00:47;101405.59;;;6.45;68.83
43161;BME280;40968;52.342;5.528;2023-03-16T10:03:28;101344.59;;;6.21;68.40
43161;BME280;40968;52.342;5.528;2023-03-16T10:05:59;101341.94;;;6.21;68.00
43161;BME280;40968;52.342;5.528;2023-03-16T10:08:29;101325.03;;;6.22;67.89
43161;BME280;40968;52.342;5.528;2023-03-16T10:11:10;101380.56;;;6.67;67.46
43161;BME280;40968;52.342;5.528;2023-03-16T10:13:46;101124.75;;;5.26;67.61
43161;BME280;40968;52.342;5.528;2023-03-16T10:16:16;101281.38;;;6.26;67.18
43161;BME280;40968;52.342;5.528;2023-03-16T10:18:46;101339.53;;;6.71;65.65
43161;BME280;40968;52.342;5.528;2023-03-16T10:21:15;101323.56;;;6.71;66.21
43161;BME280;40968;52.342;5.528;2023-03-16T10:23:44;101336.41;;;6.80;66.10
43161;BME280;40968;52.342;5.528;2023-03-16T10:26:15;101296.13;;;6.51;64.82
43161;BME280;40968;52.342;5.528;2023-03-16T10:28:43;101340.53;;;7.03;64.58
43161;BME280;40968;52.342;5.528;2023-03-16T10:31:11;101316.16;;;7.11;64.28
43161;BME280;40968;52.342;5.528;2023-03-16T10:33:38;101300.81;;;6.99;63.95
43161;BME280;40968;52.342;5.528;2023-03-16T10:36:12;101324.06;;;7.30;63.31
43161;BME280;40968;52.342;5.528;2023-03-16T10:38:42;101293.75;;;6.97;63.54
43161;BME280;40968;52.342;5.528;2023-03-16T10:41:22;101206.53;;;6.84;62.68
43161;BME280;40968;52.342;5.528;2023-03-16T10:43:51;101288.94;;;7.55;62.54
43161;BME280;40968;52.342;5.528;2023-03-16T10:46:20;101291.38;;;7.76;61.75
43161;BME280;40968;52.342;5.528;2023-03-16T10:48:52;101367.69;;;8.44;60.87
43161;BME280;40968;52.342;5.528;2023-03-16T10:51:25;101356.50;;;8.53;59.84
43161;BME280;40968;52.342;5.528;2023-03-16T10:53:56;101351.31;;;8.66;60.22
43161;BME280;40968;52.342;5.528;2023-03-16T10:56:32;101216.97;;;8.02;59.86
43161;BME280;40968;52.342;5.528;2023-03-16T10:59:00;101352.19;;;8.97;59.09
43161;BME280;40968;52.342;5.528;2023-03-16T11:01:28;101347.75;;;9.12;59.01
43161;BME280;40968;52.342;5.528;2023-03-16T11:03:57;101340.13;;;9.20;57.91
43161;BME280;40968;52.342;5.528;2023-03-16T11:06:26;101266.25;;;8.89;58.05
43161;BME280;40968;52.342;5.528;2023-03-16T11:09:02;101319.88;;;9.16;57.37
43161;BME280;40968;52.342;5.528;2023-03-16T11:11:31;101332.66;;;9.25;57.61
43161;BME280;40968;52.342;5.528;2023-03-16T11:14:01;100920.81;;;6.80;56.61
43161;BME280;40968;52.342;5.528;2023-03-16T11:16:30;101253.56;;;8.92;57.42
43161;BME280;40968;52.342;5.528;2023-03-16T11:19:01;101318.06;;;9.45;57.43
43161;BME280;40968;52.342;5.528;2023-03-16T11:21:33;101319.69;;;9.48;56.20
43161;BME280;40968;52.342;5.528;2023-03-16T11:24:04;101231.03;;;8.96;57.10
43161;BME280;40968;52.342;5.528;2023-03-16T11:26:35;101263.22;;;9.09;55.37
43161;BME280;40968;52.342;5.528;2023-03-16T11:29:06;101107.78;;;8.13;56.12
43161;BME280;40968;52.342;5.528;2023-03-16T11:31:42;101299.22;;;9.33;56.71
43161;BME280;40968;52.342;5.528;2023-03-16T11:34:15;101249.16;;;8.91;56.59
43161;BME280;40968;52.342;5.528;2023-03-16T11:36:49;101161.34;;;8.40;56.48
43161;BME280;40968;52.342;5.528;2023-03-16T11:39:29;101235.22;;;8.86;56.08
43161;BME280;40968;52.342;5.528;2023-03-16T11:42:07;101233.69;;;8.82;56.67
43161;BME280;40968;52.342;5.528;2023-03-16T11:44:40;100972.97;;;7.30;56.81
43161;BME280;40968;52.342;5.528;2023-03-16T11:47:26;101177.31;;;8.56;56.75
43161;BME280;40968;52.342;5.528;2023-03-16T11:50:00;101204.03;;;8.56;56.60
43161;BME280;40968;52.342;5.528;2023-03-16T11:52:41;101240.00;;;8.95;57.18
43161;BME280;40968;52.342;5.528;2023-03-16T11:55:21;101284.53;;;9.25;57.19
43161;BME280;40968;52.342;5.528;2023-03-16T11:57:59;101185.72;;;8.65;55.80
43161;BME280;40968;52.342;5.528;2023-03-16T12:00:34;101224.91;;;8.94;56.25
43161;BME280;40968;52.342;5.528;2023-03-16T12:03:26;101290.66;;;9.42;56.57
43161;BME280;40968;52.342;5.528;2023-03-16T12:05:58;101045.19;;;8.03;55.45
43161;BME280;40968;52.342;5.528;2023-03-16T12:08:41;101259.50;;;9.41;56.40
43161;BME280;40968;52.342;5.528;2023-03-16T12:11:13;101281.16;;;9.65;56.17
43161;BME280;40968;52.342;5.528;2023-03-16T12:13:55;101206.09;;;9.39;55.90
43161;BME280;40968;52.342;5.528;2023-03-16T12:16:28;101138.03;;;9.02;54.61
43161;BME280;40968;52.342;5.528;2023-03-16T12:18:59;101252.56;;;9.80;55.09
43161;BME280;40968;52.342;5.528;2023-03-16T12:21:30;101169.13;;;9.46;55.45
43161;BME280;40968;52.342;5.528;2023-03-16T12:24:01;101195.81;;;9.75;55.53
43161;BME280;40968;52.342;5.528;2023-03-16T12:26:31;101175.91;;;9.79;54.96
43161;BME280;40968;52.342;5.528;2023-03-16T12:29:01;101249.00;;;10.49;54.04
43161;BME280;40968;52.342;5.528;2023-03-16T12:31:38;101018.38;;;9.33;53.86
43161;BME280;40968;52.342;5.528;2023-03-16T12:34:12;101244.22;;;10.92;53.76
43161;BME280;40968;52.342;5.528;2023-03-16T12:36:55;101198.22;;;10.86;52.66
43161;BME280;40968;52.342;5.528;2023-03-16T12:39:33;101225.22;;;11.21;52.27
43161;BME280;40968;52.342;5.528;2023-03-16T12:42:14;101056.06;;;10.49;50.88
43161;BME280;40968;52.342;5.528;2023-03-16T12:44:52;101231.66;;;11.44;50.83
43161;BME280;40968;52.342;5.528;2023-03-16T12:47:26;101229.31;;;11.40;50.07
43161;BME280;40968;52.342;5.528;2023-03-16T12:50:03;101222.75;;;11.44;50.97
43161;BME280;40968;52.342;5.528;2023-03-16T12:52:38;101216.63;;;11.42;50.32
43161;BME280;40968;52.342;5.528;2023-03-16T12:55:07;101227.38;;;11.29;49.70
43161;BME280;40968;52.342;5.528;2023-03-16T12:57:39;101243.06;;;11.22;49.53
43161;BME280;40968;52.342;5.528;2023-03-16T13:00:09;101135.41;;;10.77;50.70
43161;BME280;40968;52.342;5.528;2023-03-16T13:02:38;101137.97;;;10.91;50.83
43161;BME280;40968;52.342;5.528;2023-03-16T13:05:09;101212.97;;;11.43;50.63
43161;BME280;40968;52.342;5.528;2023-03-16T13:07:45;101198.59;;;11.44;50.39
43161;BME280;40968;52.342;5.528;2023-03-16T13:10:14;101061.81;;;10.81;49.50